13:44
Airports
History
Links
Donate
Help keep this website running!
PayPal
Bitcoin
This page is community maintained. The information is intended for PC simulator navigation or reference.
Always use approved charts for navigation.
ETIH
HOHENFELS AAF
HOHENFELS AAF (ETIH)
Hohenfels, Bayern, Germany (92366)
(C)
Lat/Lng:49° 13' 5" N / 11° 50' 10" E
49.218056 / 11.836112
Elevation:1455'ft / 443mMSL
ID / ICAO:ETIH
Runways:1
Longest:09-27
Asphalt 644m / 2,112ft
Controlled:Yes
METAR13:39 GMT 2017-11-18
Altimeter: 30.09
Visibility: 6.2 statute miles
Wind: 8 knots (from 270°)
Temp: 5°c / 41°f
Humidity: 80.9%

METAR: ETIH 181339Z AUTO 27008KT 9999 SCT023 OVC033 05/02 A3009 RMK AO2 SLP207 $

(Powered by phpweather)
Airport Radio Frequencies
Tower: 120.65, 122.1
Nearby VORs <50NM
Nearby NDBs
Runway 09 / 27
Dimensions:643.7 x 22m 2112' x 72'ft
Surface:Asphalt
Edge Lights:High intensity
Runway 09 [A]Runway 27 [B]
Heading:090°TH 270°TH
Lat:
Lng:
49° 13' 5"N
11° 49' 54"E
49° 13' 5"N
11° 50' 26"E
TDZ:Yes, lighted
User Notes and Comments
49° 13' 5" N / 11° 50' 10" E
Distance To
Airport ID:
Nearby Airports
(U) Schmidgaden 18.9 NM
EDPQ NE 38°
(U) Nittenau Bruck 20.8 NM
EDNM E 89°
(U) VILSECK AAF 28.9 NM
ETOI N 353°
(C) Roth 33.2 NM
ETHR ( WX ) W 269°
(C) GRAFENWOHR AAF 33.5 NM
ETIC ( WX ) N
(U) Weiden 34.2 NM
EDQW NNE 21°
(C) Ingolstadt Manching 37.4 NM
ETSI ( WX ) SSW 201°
VFR Chart
Flight Planning at SkyVector.com